Airfield :
LOGIN :

Register | Disclaimer

   EN    FR    IT 

 










Legend :    VFR   Marginal VFR   IFR   Intensive IFR   Very Intensive IFR
Visi :
Ceiling :
>= 8 km
>= 3000ft
5 to 8 km
1000 to 3000 ft
1500m to 5 km
500 to 1000 ft
800 to 1500m
200 to 500 ft
< 800m
< 200 ft
Symbols :   Thunderstorms  Fog  Heavy snow  Heavy precipitations  Wind > 20 kt
SIGMETs :     Misc.  Thunderstorms  Icing  Turbulence  Mountain Waves  Volcanic Ashes







- Airport Elevation : 461 ft
- IATA code : WIE


ETOU - Wiesbaden Army

CURRENT METAR :
  • 210824Z 12002KT 9999 OVC016 11/09 A2998 RMK VIS 1600 RWY07 SLP157 $

EXPIRED METARs :
  • 210756Z AUTO 00000KT 9999 OVC016 10/09 A2999 RMK AO2 VIS 1400 RWY07 SLP159 T01000089 $
  • 210716Z AUTO 10003KT 9999 OVC019 09/09 A2999 RMK AO2 VIS 1000 RWY07 SLP160 $
  • 210656Z AUTO 00000KT 9999 BKN022 OVC030 09/08 A2999 RMK AO2 VIS 0800 RWY07 CIG 022V032 CIG 021 RWY07 SLP160 T00870078 $
  • 210646Z AUTO 00000KT 9999 SCT023 OVC032 09/08 A2999 RMK AO2 VIS 1200 RWY07 SLP160 $
  • 210636Z AUTO 00000KT 9999 FEW020 BKN028 OVC034 08/08 A2999 RMK AO2 VIS 1000 RWY07 CIG 028V035 CIG 026 RWY07 SLP160 $
  • 210626Z AUTO 00000KT 9999 SCT020 OVC035 08/07 A3000 RMK AO2 VIS 0800 RWY07 SLP164 $
  • 210556Z AUTO 00000KT 9999 FEW021 BKN047 08/07 A3000 RMK AO2 VIS 0800 RWY07 SLP164 T00760068 10082 20065 55002 $

TAF TAF ETOU
Valid from the 21 at 06:00 until the 22 at 12:00 UTC


210649Z 2106/2212 VRB06KT 9999 BKN015 QNH2992INS
BECMG 2107/2108 22012KT 9999 BKN030 QNH2993INS
TEMPO 2109/2117 22015G20KT
BECMG 2116/2117 22012KT 8000 -SHRA SCT015 BKN025 QNH2993INS
TEMPO 2117/2203 22015G20KT BKN015
BECMG 2202/2203 22012KT 9999 NSW SCT020 BKN025 QNH2997INS TX17/2112Z TN08/2106Z
No reported NOTAMs for that airfield.



MET'MAP, your aeronautical weather chart ! - Copyright ORBIFLY December 2007 - Disclaimer

ORBIFLY MET'MAP TEAM :

Programming & Development : Alexandra Zaïnal
Concept & Development : Baudouin d'Aumeries
Co-Development & Prog : Marc-Olivier Méhu
Technical & hardware support : Manuel Goepfert

Contact : metmap@orbifly.com




SOURCES & CREDITS :

   NOAA